Time;durP1;ratioP1;P1;durP2;ratioP2;P2;SDS_P1;SDS_P2;PMS_P1;PMS_P2;Temp;Humidity;BMP_temperature;BMP_pressure;BME280_temperature;BME280_humidity;BME280_pressure;Samples;Min_cycle;Max_cycle;Signal;HPM_P1;HPM_P2
2023/01/28 00:00:24;;;;;;;2.53;2.27;;;4.40;99.90;;;;;;5073871;28;20174;-71
2023/01/28 00:02:49;;;;;;;2.33;2.00;;;4.40;99.90;;;;;;5073291;28;20170;-71
2023/01/28 00:05:15;;;;;;;6.00;2.43;;;4.30;99.90;;;;;;5073548;28;20689;-71
2023/01/28 00:07:40;;;;;;;4.50;3.60;;;4.20;99.90;;;;;;5073706;28;20180;-71
2023/01/28 00:10:07;;;;;;;2.60;2.33;;;4.10;99.90;;;;;;5073588;28;20272;-71
2023/01/28 00:12:32;;;;;;;3.53;2.00;;;4.00;99.90;;;;;;5072416;28;20170;-71
2023/01/28 00:14:57;;;;;;;3.37;2.73;;;3.90;99.90;;;;;;5073005;28;20475;-71
2023/01/28 00:17:23;;;;;;;3.30;2.87;;;3.80;99.90;;;;;;5071990;28;20685;-71
2023/01/28 00:19:48;;;;;;;2.70;2.50;;;3.70;99.90;;;;;;5067820;28;20194;-71
2023/01/28 00:22:14;;;;;;;2.73;2.50;;;3.50;99.90;;;;;;5083448;28;20171;-71
2023/01/28 00:24:40;;;;;;;3.77;2.97;;;3.40;99.90;;;;;;5073198;28;20245;-71
2023/01/28 00:27:05;;;;;;;2.97;2.67;;;3.30;99.90;;;;;;5073288;28;20170;-71
2023/01/28 00:29:31;;;;;;;4.40;3.10;;;3.20;99.90;;;;;;5073310;28;20190;-71
2023/01/28 00:31:56;;;;;;;3.07;2.77;;;3.00;99.90;;;;;;5073094;28;20186;-70
2023/01/28 00:34:22;;;;;;;3.03;2.50;;;2.90;99.90;;;;;;5071976;28;20193;-71
2023/01/28 00:36:56;;;;;;;4.33;2.63;;;2.80;99.90;;;;;;5073298;28;20194;-71
2023/01/28 00:39:22;;;;;;;4.53;2.97;;;2.60;99.90;;;;;;5072881;28;20204;-71
2023/01/28 00:41:47;;;;;;;4.80;3.40;;;2.50;99.90;;;;;;5072928;28;20476;-71
2023/01/28 00:44:13;;;;;;;3.80;3.40;;;2.50;99.90;;;;;;5072657;28;20520;-70
2023/01/28 00:46:40;;;;;;;3.50;3.10;;;2.40;99.90;;;;;;5071989;28;20546;-72
2023/01/28 00:49:06;;;;;;;4.70;3.47;;;2.40;99.90;;;;;;5061120;28;20195;-69
2023/01/28 00:51:32;;;;;;;3.10;2.80;;;2.30;99.90;;;;;;5052955;28;20417;-70
2023/01/28 00:53:57;;;;;;;4.03;3.63;;;2.40;99.90;;;;;;5057552;28;20448;-70
2023/01/28 00:56:23;;;;;;;4.00;3.07;;;2.50;99.90;;;;;;5072576;28;20177;-71
2023/01/28 00:58:49;;;;;;;4.80;3.50;;;2.60;99.90;;;;;;5072749;28;20193;-71
2023/01/28 01:01:20;;;;;;;4.60;2.80;;;2.70;99.90;;;;;;5072819;28;20171;-72
2023/01/28 01:03:46;;;;;;;3.50;2.43;;;2.80;99.90;;;;;;5072402;28;20167;-72
2023/01/28 01:06:15;;;;;;;5.23;2.70;;;3.00;99.90;;;;;;5072349;28;20404;-70
2023/01/28 01:08:41;;;;;;;3.63;2.83;;;3.00;99.90;;;;;;5072299;28;20511;-71
2023/01/28 01:11:10;;;;;;;4.27;3.10;;;3.10;99.90;;;;;;5072576;28;20786;-72
2023/01/28 01:13:36;;;;;;;4.47;3.17;;;3.20;99.90;;;;;;5072426;28;20831;-71
2023/01/28 01:16:04;;;;;;;2.60;2.30;;;3.30;99.90;;;;;;5071879;28;20421;-71
2023/01/28 01:18:30;;;;;;;2.93;2.63;;;3.40;99.90;;;;;;5070987;28;20432;-72
2023/01/28 01:20:57;;;;;;;6.20;3.90;;;3.50;99.90;;;;;;5072246;28;20477;-72
2023/01/28 01:23:25;;;;;;;4.43;3.07;;;3.50;99.90;;;;;;5072347;28;20162;-70
2023/01/28 01:25:50;;;;;;;3.20;2.93;;;3.60;99.90;;;;;;5071339;28;20921;-71
2023/01/28 01:28:16;;;;;;;4.03;3.13;;;3.60;99.90;;;;;;5072285;28;20512;-71
2023/01/28 01:30:42;;;;;;;6.40;3.73;;;3.70;99.90;;;;;;5072865;28;20224;-71
2023/01/28 01:33:07;;;;;;;3.30;2.90;;;3.70;99.90;;;;;;5083834;28;20173;-71
2023/01/28 01:35:33;;;;;;;4.17;2.90;;;3.70;99.90;;;;;;5071549;28;20196;-71
2023/01/28 01:37:58;;;;;;;2.90;2.60;;;3.70;99.90;;;;;;5071828;28;20193;-70
2023/01/28 01:40:24;;;;;;;5.47;3.10;;;3.80;99.90;;;;;;5072148;28;20176;-72
2023/01/28 01:42:49;;;;;;;4.33;2.70;;;3.80;99.90;;;;;;5072046;28;20171;-73
2023/01/28 01:45:16;;;;;;;3.57;2.97;;;3.90;99.90;;;;;;5071674;28;20170;-72
2023/01/28 01:48:02;;;;;;;3.70;2.80;;;3.90;99.90;;;;;;5067555;28;20528;-72
2023/01/28 01:50:41;;;;;;;3.40;2.73;;;3.90;99.90;;;;;;5051995;28;20413;-73
2023/01/28 01:53:15;;;;;;;4.00;3.20;;;3.90;99.90;;;;;;5057213;28;20428;-69
2023/01/28 01:55:46;;;;;;;3.17;2.57;;;3.90;99.90;;;;;;5071618;28;20487;-70
2023/01/28 01:58:16;;;;;;;4.57;3.20;;;3.80;99.90;;;;;;5070720;28;20439;-70
2023/01/28 02:00:42;;;;;;;6.20;3.07;;;3.70;99.90;;;;;;5071870;28;20412;-73
2023/01/28 02:03:09;;;;;;;3.47;3.07;;;3.60;99.90;;;;;;5071936;28;20442;-72
2023/01/28 02:05:35;;;;;;;6.97;3.17;;;3.50;99.90;;;;;;5071555;28;20166;-71
2023/01/28 02:08:20;;;;;;;4.57;3.73;;;3.50;99.90;;;;;;5071734;28;20495;-71
2023/01/28 02:10:53;;;;;;;3.20;2.83;;;3.50;99.90;;;;;;5071843;28;20452;-71
2023/01/28 02:13:24;;;;;;;4.57;2.83;;;3.40;99.90;;;;;;5071524;28;20424;-72
2023/01/28 02:15:50;;;;;;;4.40;3.60;;;3.30;99.90;;;;;;5071396;28;20496;-71
2023/01/28 02:18:16;;;;;;;4.30;3.10;;;3.20;99.90;;;;;;5066846;28;20480;-72
2023/01/28 02:21:15;;;;;;;4.17;3.77;;;3.10;99.90;;;;;;5051671;28;20881;-72
2023/01/28 02:24:14;;;;;;;3.83;3.50;;;3.00;99.90;;;;;;5070496;28;20417;-71
2023/01/28 02:27:11;;;;;;;5.50;3.13;;;2.90;99.90;;;;;;5071675;28;20439;-71
2023/01/28 02:30:00;;;;;;;6.40;4.70;;;2.80;99.90;;;;;;5063849;28;20432;-71
2023/01/28 02:32:31;;;;;;;4.80;3.87;;;2.80;99.90;;;;;;5071455;28;20416;-71
2023/01/28 02:35:17;;;;;;;6.63;4.77;;;2.70;99.90;;;;;;5070984;28;20884;-71
2023/01/28 02:37:56;;;;;;;7.97;5.40;;;2.80;99.90;;;;;;5071076;28;20423;-71
2023/01/28 02:40:28;;;;;;;6.10;4.67;;;2.90;99.90;;;;;;5071390;28;20909;-71
2023/01/28 02:42:54;;;;;;;6.03;4.40;;;2.80;99.90;;;;;;5074150;28;20412;-71
2023/01/28 02:48:16;;;;;;;5.13;3.90;;;2.80;99.90;;;;;;5051459;28;20531;-71
2023/01/28 02:51:25;;;;;;;5.50;4.00;;;2.70;99.90;;;;;;5051349;28;20442;-70
2023/01/28 02:54:00;;;;;;;4.37;3.93;;;2.70;99.90;;;;;;5045090;28;20428;-71
2023/01/28 02:56:46;;;;;;;4.53;3.80;;;2.70;99.90;;;;;;5050447;28;20404;-71
2023/01/28 02:59:40;;;;;;;5.53;4.00;;;2.70;99.90;;;;;;5054883;28;20476;-71
2023/01/28 03:02:24;;;;;;;5.40;4.07;;;2.90;99.90;;;;;;5061689;28;20925;-71
2023/01/28 03:05:11;;;;;;;5.90;4.13;;;2.90;99.90;;;;;;5074637;28;20435;-71
2023/01/28 03:07:38;;;;;;;7.20;4.30;;;3.00;99.90;;;;;;5075149;28;20441;-72
2023/01/28 03:10:08;;;;;;;5.97;4.17;;;3.10;99.90;;;;;;5074749;28;20431;-70
2023/01/28 03:38:21;;;;;;;6.37;3.90;;;3.40;99.90;;;;;;5054718;28;20464;-70
2023/01/28 03:41:01;;;;;;;4.43;3.50;;;3.50;99.90;;;;;;5054419;28;20424;-71
2023/01/28 03:43:28;;;;;;;7.97;4.03;;;3.50;99.90;;;;;;5054376;28;20405;-71
2023/01/28 03:45:54;;;;;;;4.37;3.10;;;3.50;99.90;;;;;;5059259;28;20420;-71
2023/01/28 03:48:25;;;;;;;5.53;4.63;;;3.50;99.90;;;;;;5055883;28;20788;-71
2023/01/28 03:50:51;;;;;;;4.13;3.73;;;3.50;99.90;;;;;;5065298;28;20181;-71
2023/01/28 03:53:17;;;;;;;5.97;4.30;;;3.50;99.90;;;;;;5077025;28;20787;-70
2023/01/28 03:55:48;;;;;;;5.37;3.77;;;3.50;99.90;;;;;;5053572;28;20453;-71
2023/01/28 03:58:16;;;;;;;5.90;4.00;;;3.60;99.90;;;;;;5054032;28;20413;-71
2023/01/28 04:00:42;;;;;;;3.80;3.40;;;3.60;99.90;;;;;;5054022;28;20737;-70
2023/01/28 04:03:15;;;;;;;6.93;4.20;;;3.60;99.90;;;;;;5061907;28;20456;-71
2023/01/28 04:05:45;;;;;;;4.60;3.87;;;3.50;99.90;;;;;;5064644;28;20456;-71
2023/01/28 04:08:11;;;;;;;4.63;3.90;;;3.50;99.90;;;;;;5053583;28;20800;-70
2023/01/28 04:10:40;;;;;;;4.37;3.57;;;3.60;99.90;;;;;;5053834;28;20500;-70
2023/01/28 04:13:06;;;;;;;5.43;3.30;;;3.60;99.90;;;;;;5053669;28;20459;-70
2023/01/28 04:15:32;;;;;;;5.30;4.10;;;3.70;99.90;;;;;;5053792;28;20461;-70
2023/01/28 04:17:57;;;;;;;7.97;4.50;;;3.60;99.90;;;;;;5053775;28;20170;-70
2023/01/28 04:20:23;;;;;;;4.70;4.30;;;3.60;99.90;;;;;;5053508;28;20410;-70
2023/01/28 04:22:48;;;;;;;5.47;3.93;;;3.60;99.90;;;;;;5053605;28;20171;-69
2023/01/28 04:25:14;;;;;;;4.73;4.30;;;3.70;99.90;;;;;;5053385;28;20175;-70
2023/01/28 04:27:39;;;;;;;4.70;4.03;;;3.70;99.90;;;;;;5053533;28;20623;-70
2023/01/28 04:30:05;;;;;;;6.57;4.30;;;3.70;99.90;;;;;;5053265;28;20206;-71
2023/01/28 04:32:31;;;;;;;7.40;4.60;;;3.80;99.90;;;;;;5052121;28;20660;-72
2023/01/28 04:34:56;;;;;;;6.33;4.90;;;3.70;99.90;;;;;;5053582;28;20464;-70
2023/01/28 04:37:22;;;;;;;8.30;4.90;;;3.60;99.90;;;;;;5071559;28;20178;-70
2023/01/28 04:39:48;;;;;;;5.07;3.87;;;3.60;99.90;;;;;;5073160;28;20222;-70
2023/01/28 04:42:13;;;;;;;6.17;4.53;;;3.60;99.90;;;;;;5072972;28;20162;-70
2023/01/28 04:44:38;;;;;;;6.13;4.77;;;3.70;99.90;;;;;;5071584;28;20178;-70
2023/01/28 04:47:04;;;;;;;4.50;4.10;;;3.70;99.90;;;;;;5072752;28;20541;-70
2023/01/28 04:49:29;;;;;;;6.57;5.07;;;3.70;99.90;;;;;;5052771;28;20222;-71
2023/01/28 04:51:55;;;;;;;6.67;5.43;;;3.80;99.90;;;;;;5053018;28;20198;-70
2023/01/28 04:54:20;;;;;;;9.53;6.20;;;3.80;99.90;;;;;;5052571;28;20191;-70
2023/01/28 04:56:46;;;;;;;8.13;5.93;;;3.90;99.90;;;;;;5052901;28;20186;-70
2023/01/28 04:59:11;;;;;;;7.27;5.60;;;3.90;99.90;;;;;;5053116;28;20195;-72
2023/01/28 05:01:37;;;;;;;7.57;6.10;;;3.90;99.90;;;;;;5054336;28;20175;-72
2023/01/28 05:04:04;;;;;;;7.77;6.00;;;3.90;99.90;;;;;;5075484;28;20179;-72
2023/01/28 05:06:31;;;;;;;10.30;6.70;;;3.90;99.90;;;;;;5052400;28;20173;-72
2023/01/28 05:08:56;;;;;;;7.90;6.50;;;4.00;99.90;;;;;;5057622;28;20452;-70
2023/01/28 05:11:22;;;;;;;9.87;7.13;;;4.00;99.90;;;;;;5072492;28;20419;-70
2023/01/28 05:13:48;;;;;;;12.90;11.50;;;4.00;99.90;;;;;;5072468;28;20783;-71
2023/01/28 05:16:14;;;;;;;16.30;10.30;;;3.90;99.90;;;;;;5072211;28;20170;-72
2023/01/28 05:18:39;;;;;;;17.90;9.80;;;3.90;99.90;;;;;;5072167;28;20194;-72
2023/01/28 05:21:05;;;;;;;15.67;9.30;;;3.90;99.90;;;;;;5071279;28;20501;-71
2023/01/28 05:23:30;;;;;;;17.53;8.47;;;3.80;99.90;;;;;;5063940;28;20179;-72
2023/01/28 05:25:56;;;;;;;13.87;9.77;;;3.80;99.90;;;;;;5050835;28;20273;-72
2023/01/28 05:28:21;;;;;;;10.73;8.17;;;3.90;99.90;;;;;;5052225;28;20683;-72
2023/01/28 05:30:47;;;;;;;12.67;9.20;;;3.90;99.90;;;;;;5052144;28;20663;-70
2023/01/28 05:33:12;;;;;;;13.50;9.03;;;3.90;99.90;;;;;;5056282;28;20261;-72
2023/01/28 05:35:38;;;;;;;14.17;8.53;;;3.80;99.90;;;;;;5064410;28;20696;-71
2023/01/28 05:38:04;;;;;;;12.43;8.93;;;3.80;99.90;;;;;;5071759;28;20194;-71
2023/01/28 05:40:29;;;;;;;15.87;9.40;;;3.80;99.90;;;;;;5072050;28;20518;-72
2023/01/28 05:42:55;;;;;;;14.40;9.30;;;3.80;99.90;;;;;;5071988;28;20411;-72
2023/01/28 05:45:21;;;;;;;14.17;8.87;;;3.80;99.90;;;;;;5071478;28;20190;-72
2023/01/28 05:47:47;;;;;;;17.20;10.67;;;3.80;99.90;;;;;;5071904;28;20507;-72
2023/01/28 05:50:13;;;;;;;15.90;9.70;;;3.80;99.90;;;;;;5072052;28;20198;-71
2023/01/28 05:52:39;;;;;;;13.40;8.60;;;3.80;99.90;;;;;;5071975;28;20577;-72
2023/01/28 05:55:05;;;;;;;10.30;7.90;;;3.80;99.90;;;;;;5070362;28;20456;-72
2023/01/28 05:57:31;;;;;;;16.17;9.70;;;3.80;99.90;;;;;;5054352;28;20174;-72
2023/01/28 05:59:56;;;;;;;12.37;7.67;;;3.80;99.90;;;;;;5051663;28;20784;-71
2023/01/28 06:02:22;;;;;;;13.93;8.53;;;3.80;99.90;;;;;;5071216;28;20174;-72
2023/01/28 06:04:47;;;;;;;13.27;9.80;;;3.80;99.90;;;;;;5071917;28;20662;-70
2023/01/28 06:07:14;;;;;;;11.50;7.97;;;3.80;99.90;;;;;;5063424;28;20180;-72
2023/01/28 06:09:40;;;;;;;14.90;7.30;;;3.80;99.90;;;;;;5084206;28;20225;-71
2023/01/28 06:12:06;;;;;;;13.40;8.07;;;3.80;99.90;;;;;;5071708;28;20450;-72
2023/01/28 06:14:31;;;;;;;11.53;8.57;;;3.80;99.90;;;;;;5071396;28;20197;-72
2023/01/28 06:16:57;;;;;;;17.43;8.90;;;3.80;99.90;;;;;;5069567;28;20654;-72
2023/01/28 06:19:22;;;;;;;14.27;8.83;;;3.80;99.90;;;;;;5051660;28;20278;-71
2023/01/28 06:21:48;;;;;;;11.50;7.17;;;3.80;99.90;;;;;;5051687;28;20167;-72
2023/01/28 06:24:13;;;;;;;9.53;7.30;;;3.80;99.90;;;;;;5051464;28;20241;-72
2023/01/28 06:26:39;;;;;;;11.50;7.93;;;3.90;99.90;;;;;;5051590;28;20194;-71
2023/01/28 06:29:04;;;;;;;14.63;10.60;;;3.80;99.90;;;;;;5051901;28;20206;-72
2023/01/28 06:31:30;;;;;;;14.87;9.33;;;3.80;99.90;;;;;;5069062;28;20186;-72
2023/01/28 06:33:55;;;;;;;13.77;9.67;;;3.80;99.90;;;;;;5075342;28;20220;-72
2023/01/28 06:36:21;;;;;;;12.87;7.83;;;3.80;99.90;;;;;;5075233;28;20162;-72
2023/01/28 06:38:47;;;;;;;10.13;7.00;;;3.80;99.90;;;;;;5061910;28;20211;-72
2023/01/28 06:41:12;;;;;;;10.80;8.00;;;3.70;99.90;;;;;;5070784;28;20175;-71
2023/01/28 06:43:38;;;;;;;12.83;8.00;;;3.70;99.90;;;;;;5055466;28;20171;-72
2023/01/28 06:46:03;;;;;;;11.40;7.80;;;3.70;99.90;;;;;;5055007;28;20258;-72
2023/01/28 06:48:29;;;;;;;9.50;7.80;;;3.70;99.90;;;;;;5055205;28;20273;-71
2023/01/28 06:50:55;;;;;;;13.20;7.30;;;3.70;99.90;;;;;;5055641;28;20194;-72
2023/01/28 06:53:21;;;;;;;14.23;6.80;;;3.70;99.90;;;;;;5055346;28;20174;-72
2023/01/28 06:55:46;;;;;;;17.13;7.67;;;3.70;99.90;;;;;;5053567;28;20209;-72
2023/01/28 06:58:12;;;;;;;12.00;7.80;;;3.70;99.90;;;;;;5054873;28;20433;-71
2023/01/28 07:00:38;;;;;;;11.63;8.00;;;3.70;99.90;;;;;;5074926;28;20754;-71
2023/01/28 07:03:04;;;;;;;12.67;8.00;;;3.70;99.90;;;;;;5075197;28;20674;-71
2023/01/28 07:05:30;;;;;;;8.90;7.00;;;3.70;99.90;;;;;;5073436;28;20401;-71
2023/01/28 07:07:55;;;;;;;9.57;7.00;;;3.80;99.90;;;;;;5071582;28;20416;-72
2023/01/28 07:10:21;;;;;;;9.00;6.37;;;3.70;99.90;;;;;;5074688;28;20842;-72
2023/01/28 07:12:46;;;;;;;13.27;6.93;;;3.70;99.90;;;;;;5074923;28;20189;-72
2023/01/28 07:15:13;;;;;;;9.33;6.83;;;3.70;99.90;;;;;;5069242;28;20656;-71
2023/01/28 07:17:41;;;;;;;8.10;6.03;;;3.70;99.90;;;;;;5053522;28;20177;-72
2023/01/28 07:20:08;;;;;;;9.40;6.33;;;3.70;99.90;;;;;;5070170;28;20976;-71
2023/01/28 07:22:33;;;;;;;10.00;6.07;;;3.70;99.90;;;;;;5081185;28;20451;-72
2023/01/28 07:25:00;;;;;;;8.27;6.07;;;3.70;99.90;;;;;;5074054;28;20439;-72
2023/01/28 07:27:25;;;;;;;8.27;5.30;;;3.70;99.90;;;;;;5073447;28;20166;-72
2023/01/28 07:29:51;;;;;;;9.50;6.93;;;3.70;99.90;;;;;;5068374;28;20448;-74
2023/01/28 07:32:16;;;;;;;11.93;6.53;;;3.70;99.90;;;;;;5074431;28;20166;-71
2023/01/28 07:34:42;;;;;;;8.97;6.60;;;3.70;99.90;;;;;;5074160;28;20198;-71
2023/01/28 07:37:08;;;;;;;18.20;11.03;;;3.70;99.90;;;;;;5073671;28;20163;-73
2023/01/28 07:39:34;;;;;;;13.37;7.70;;;3.70;99.90;;;;;;5054667;28;20605;-74
2023/01/28 07:42:00;;;;;;;9.40;6.73;;;3.70;99.90;;;;;;5064429;28;20408;-73
2023/01/28 07:44:26;;;;;;;8.60;6.77;;;3.70;99.90;;;;;;5073399;28;20253;-71
2023/01/28 07:46:51;;;;;;;11.20;6.80;;;3.70;99.90;;;;;;5074264;28;20491;-71
2023/01/28 07:49:17;;;;;;;9.70;6.33;;;3.80;99.90;;;;;;5073663;28;20235;-70
2023/01/28 07:51:45;;;;;;;13.00;8.00;;;3.80;99.90;;;;;;5074231;28;20197;-71
2023/01/28 07:54:11;;;;;;;11.70;6.27;;;3.80;99.90;;;;;;5074043;28;20534;-71
2023/01/28 07:56:37;;;;;;;9.00;6.33;;;3.90;99.90;;;;;;5072521;28;20488;-70
2023/01/28 07:59:03;;;;;;;11.87;7.60;;;3.90;99.90;;;;;;5073878;28;20196;-72
2023/01/28 08:01:28;;;;;;;10.50;7.13;;;3.90;99.90;;;;;;5056048;28;20225;-72
2023/01/28 08:03:54;;;;;;;9.20;6.50;;;4.00;99.90;;;;;;5053980;28;20441;-72
2023/01/28 08:06:20;;;;;;;9.43;6.40;;;4.00;99.90;;;;;;5053549;28;20193;-71
2023/01/28 08:08:47;;;;;;;10.00;6.90;;;4.10;99.90;;;;;;5053812;28;20219;-72
2023/01/28 08:11:13;;;;;;;12.90;8.83;;;4.10;99.90;;;;;;5062519;28;20188;-72
2023/01/28 08:13:38;;;;;;;13.57;8.60;;;4.10;99.90;;;;;;5063118;28;20417;-72
2023/01/28 08:16:04;;;;;;;11.80;8.20;;;4.10;99.90;;;;;;5053295;28;20628;-71
2023/01/28 08:18:30;;;;;;;10.33;7.60;;;4.10;99.90;;;;;;5053352;28;20201;-70
2023/01/28 08:20:57;;;;;;;10.60;7.50;;;4.10;99.90;;;;;;5057277;28;20500;-70
2023/01/28 08:23:23;;;;;;;12.97;8.27;;;4.10;99.90;;;;;;5073624;28;20698;-72
2023/01/28 08:25:48;;;;;;;17.03;9.30;;;4.10;99.90;;;;;;5073175;28;20452;-72
2023/01/28 08:28:15;;;;;;;13.83;7.93;;;4.10;99.90;;;;;;5067874;28;20222;-71
2023/01/28 08:30:41;;;;;;;13.33;8.97;;;4.20;99.90;;;;;;5068941;28;20189;-72
2023/01/28 08:33:09;;;;;;;15.70;9.43;;;4.20;99.90;;;;;;5072584;28;20837;-71
2023/01/28 08:35:35;;;;;;;12.93;7.33;;;4.20;99.90;;;;;;5071596;28;20456;-69
2023/01/28 08:38:02;;;;;;;11.00;7.00;;;4.20;99.90;;;;;;5073001;28;20526;-69
2023/01/28 08:40:28;;;;;;;11.27;7.53;;;4.30;99.90;;;;;;5073121;28;20491;-69
2023/01/28 08:42:55;;;;;;;10.47;7.03;;;4.30;99.90;;;;;;5071861;28;20890;-68
2023/01/28 08:45:23;;;;;;;10.30;7.13;;;4.40;99.90;;;;;;5052926;28;20478;-70
2023/01/28 08:47:57;;;;;;;11.60;7.50;;;4.40;99.90;;;;;;5052974;28;20416;-72
2023/01/28 08:50:25;;;;;;;10.60;7.27;;;4.40;99.90;;;;;;5051730;28;20425;-71
2023/01/28 08:53:00;;;;;;;11.07;7.73;;;4.40;99.90;;;;;;5063564;28;20426;-69
2023/01/28 08:55:26;;;;;;;13.17;7.33;;;4.40;99.90;;;;;;5071935;28;20552;-70
2023/01/28 08:57:52;;;;;;;9.67;7.27;;;4.40;99.90;;;;;;5072845;28;20465;-70
2023/01/28 09:00:18;;;;;;;10.10;7.43;;;4.40;99.90;;;;;;5057823;28;20977;-70
2023/01/28 09:02:44;;;;;;;10.07;6.50;;;4.50;99.90;;;;;;5062005;28;20245;-70
2023/01/28 09:05:10;;;;;;;6.50;5.10;;;4.50;99.90;;;;;;5072420;28;20414;-70
2023/01/28 09:07:37;;;;;;;11.17;7.73;;;4.40;99.90;;;;;;5072644;28;20412;-70
2023/01/28 09:10:04;;;;;;;10.20;7.07;;;4.40;99.90;;;;;;5072264;28;20469;-70
2023/01/28 09:12:30;;;;;;;8.50;6.97;;;4.40;99.90;;;;;;5059961;28;20425;-71
2023/01/28 09:14:56;;;;;;;12.40;6.87;;;4.40;99.90;;;;;;5052683;28;20954;-70
2023/01/28 09:17:22;;;;;;;11.40;7.00;;;4.50;99.90;;;;;;5052508;28;20398;-71
2023/01/28 09:19:48;;;;;;;10.97;6.60;;;4.50;99.90;;;;;;5052440;28;20266;-71
2023/01/28 09:22:13;;;;;;;10.80;6.77;;;4.60;99.90;;;;;;5053373;28;20225;-71
2023/01/28 09:24:39;;;;;;;9.77;8.23;;;4.50;99.90;;;;;;5050846;28;20453;-69
2023/01/28 09:27:05;;;;;;;9.20;6.70;;;4.50;99.90;;;;;;5051068;28;20228;-70
2023/01/28 09:29:33;;;;;;;9.57;7.00;;;4.50;99.90;;;;;;5061384;28;20202;-69
2023/01/28 09:31:58;;;;;;;9.40;7.60;;;4.60;99.90;;;;;;5060859;28;20425;-69
2023/01/28 09:34:24;;;;;;;15.70;9.37;;;4.60;99.90;;;;;;5071906;28;20929;-70
2023/01/28 09:36:49;;;;;;;9.87;7.37;;;4.70;99.90;;;;;;5072253;28;20569;-70
2023/01/28 09:39:15;;;;;;;10.20;7.93;;;4.70;99.90;;;;;;5071978;28;20205;-70
2023/01/28 09:42:01;;;;;;;13.63;8.33;;;4.70;99.90;;;;;;5072145;28;20170;-70
2023/01/28 09:44:52;;;;;;;8.43;6.43;;;4.70;99.90;;;;;;5092316;28;20178;-70
2023/01/28 09:47:43;;;;;;;10.40;7.57;;;4.70;99.90;;;;;;5072206;28;20451;-70
2023/01/28 09:50:21;;;;;;;10.93;7.27;;;4.70;99.90;;;;;;5069422;28;20443;-70
2023/01/28 09:52:47;;;;;;;8.30;5.90;;;4.70;99.90;;;;;;5056752;28;20414;-70
2023/01/28 09:55:28;;;;;;;7.53;5.53;;;4.70;99.90;;;;;;5050376;28;20551;-70
2023/01/28 09:57:55;;;;;;;8.27;6.47;;;4.70;99.90;;;;;;5057397;28;20404;-70
2023/01/28 10:00:26;;;;;;;8.20;6.50;;;4.80;99.90;;;;;;5071362;28;20851;-70
2023/01/28 10:03:00;;;;;;;9.90;6.70;;;4.80;99.90;;;;;;5072015;28;20412;-70
2023/01/28 10:05:38;;;;;;;10.43;7.60;;;4.90;99.90;;;;;;5071783;28;20870;-69
2023/01/28 10:08:18;;;;;;;10.87;7.40;;;4.90;99.90;;;;;;5071875;28;20436;-70
2023/01/28 10:10:54;;;;;;;10.13;6.60;;;4.90;99.90;;;;;;5071639;28;20392;-71
2023/01/28 10:13:36;;;;;;;8.40;6.70;;;5.00;99.90;;;;;;5050564;28;20839;-70
2023/01/28 10:16:42;;;;;;;9.77;7.40;;;5.10;99.90;;;;;;5051531;28;20460;-71
2023/01/28 10:19:34;;;;;;;8.30;5.90;;;5.20;99.90;;;;;;5030663;28;20463;-71
2023/01/28 10:22:05;;;;;;;8.20;6.27;;;5.30;99.90;;;;;;5052093;28;20414;-72
2023/01/28 10:24:39;;;;;;;7.00;6.30;;;5.40;99.90;;;;;;5051437;28;20401;-70
2023/01/28 10:27:13;;;;;;;10.97;7.93;;;5.40;99.90;;;;;;5064460;28;20436;-70
2023/01/28 10:29:42;;;;;;;8.63;7.20;;;5.50;99.90;;;;;;5052736;28;20444;-71
2023/01/28 10:32:29;;;;;;;8.50;6.67;;;5.60;99.90;;;;;;5051624;28;20409;-72
2023/01/28 10:34:58;;;;;;;8.10;6.40;;;5.70;99.90;;;;;;5051383;28;20528;-71
2023/01/28 10:37:24;;;;;;;8.73;6.90;;;5.70;99.90;;;;;;5065954;28;20497;-70
2023/01/28 10:39:53;;;;;;;7.87;6.57;;;5.80;99.90;;;;;;5071529;28;20432;-70
2023/01/28 10:42:38;;;;;;;9.27;7.57;;;5.80;99.90;;;;;;5071679;28;20436;-70
2023/01/28 10:45:22;;;;;;;8.13;6.50;;;5.90;99.90;;;;;;5071418;28;20485;-70
2023/01/28 10:47:53;;;;;;;8.40;6.90;;;5.90;99.90;;;;;;5066842;28;20425;-70
2023/01/28 10:50:23;;;;;;;10.17;7.43;;;5.90;99.90;;;;;;5069814;28;20423;-70
2023/01/28 10:53:00;;;;;;;8.80;6.57;;;5.80;99.90;;;;;;5075071;28;20789;-71
2023/01/28 10:55:29;;;;;;;9.17;6.73;;;5.60;99.90;;;;;;5071346;28;20549;-70
2023/01/28 10:57:55;;;;;;;6.80;6.10;;;5.60;99.90;;;;;;5071392;28;20487;-71
2023/01/28 11:00:41;;;;;;;7.60;6.50;;;5.60;99.90;;;;;;5070956;28;20507;-70
2023/01/28 11:03:17;;;;;;;9.07;7.00;;;5.60;99.90;;;;;;5069664;28;20170;-70
2023/01/28 11:05:51;;;;;;;8.30;7.30;;;5.70;99.90;;;;;;5049633;28;20899;-69
2023/01/28 11:08:17;;;;;;;10.20;7.17;;;5.80;99.90;;;;;;5051431;28;20461;-70
2023/01/28 11:10:44;;;;;;;10.27;9.03;;;5.80;99.90;;;;;;5063513;28;20420;-70
2023/01/28 11:13:19;;;;;;;16.20;6.93;;;5.80;99.90;;;;;;5070581;28;20451;-72
2023/01/28 11:16:12;;;;;;;8.17;7.30;;;5.80;99.90;;;;;;5065634;28;20461;-70
2023/01/28 11:18:45;;;;;;;7.47;5.77;;;5.80;99.90;;;;;;5051141;28;20513;-71
2023/01/28 11:21:30;;;;;;;7.73;6.10;;;5.70;99.90;;;;;;5053310;28;20517;-70
2023/01/28 11:24:01;;;;;;;8.97;7.47;;;5.70;99.90;;;;;;5057500;28;20409;-70
2023/01/28 11:26:31;;;;;;;6.90;6.10;;;5.70;99.90;;;;;;5054585;28;20405;-70
2023/01/28 11:28:57;;;;;;;7.60;5.97;;;5.80;99.90;;;;;;5065295;28;20443;-70
2023/01/28 11:31:24;;;;;;;8.83;6.90;;;5.90;99.90;;;;;;5074695;28;20400;-71
2023/01/28 11:33:56;;;;;;;10.50;7.50;;;5.90;99.90;;;;;;5074458;28;20420;-72
2023/01/28 11:36:28;;;;;;;8.07;7.27;;;5.90;99.90;;;;;;5074196;28;20527;-70
2023/01/28 11:38:58;;;;;;;10.57;7.77;;;5.90;99.90;;;;;;5074213;28;20444;-70
2023/01/28 11:41:29;;;;;;;11.07;7.20;;;5.90;99.90;;;;;;5073150;28;20419;-70
2023/01/28 11:43:55;;;;;;;9.87;7.83;;;5.90;99.90;;;;;;5074369;28;20400;-71
2023/01/28 11:46:35;;;;;;;7.37;6.10;;;5.80;99.90;;;;;;5074316;28;20408;-70
2023/01/28 11:49:09;;;;;;;10.50;7.30;;;5.80;99.90;;;;;;5063099;28;20445;-70
2023/01/28 11:52:08;;;;;;;8.93;6.93;;;5.80;99.90;;;;;;5054173;28;20402;-72
2023/01/28 11:54:55;;;;;;;9.17;6.60;;;5.80;99.90;;;;;;5052561;28;20557;-70
2023/01/28 11:57:33;;;;;;;6.13;5.30;;;5.80;99.90;;;;;;5052768;28;20799;-71
2023/01/28 11:59:59;;;;;;;9.47;6.90;;;5.80;99.90;;;;;;5053942;28;20504;-71
2023/01/28 12:02:48;;;;;;;8.93;6.77;;;5.70;99.90;;;;;;5083236;28;20404;-70
2023/01/28 12:05:29;;;;;;;7.27;5.60;;;5.70;99.90;;;;;;5053847;28;20159;-70
2023/01/28 12:08:11;;;;;;;7.83;6.80;;;5.70;99.90;;;;;;5053788;28;20441;-70
2023/01/28 12:12:10;;;;;;;7.30;6.30;;;5.70;99.90;;;;;;5057964;28;20415;-70
2023/01/28 12:14:48;;;;;;;8.43;7.57;;;5.80;99.90;;;;;;5056076;28;20412;-70
2023/01/28 12:17:31;;;;;;;11.37;7.13;;;5.80;99.90;;;;;;5071049;28;20793;-71
2023/01/28 12:20:18;;;;;;;7.03;5.90;;;5.70;99.90;;;;;;5069686;28;20435;-69
2023/01/28 12:22:56;;;;;;;11.20;6.60;;;5.70;99.90;;;;;;5072929;28;20417;-72
2023/01/28 12:25:22;;;;;;;9.27;6.63;;;5.60;99.90;;;;;;5061331;28;20752;-70
2023/01/28 12:28:29;;;;;;;7.37;6.57;;;5.60;99.90;;;;;;5053425;28;20516;-72
2023/01/28 12:31:28;;;;;;;9.07;7.17;;;5.50;99.90;;;;;;5052365;28;20569;-70
2023/01/28 12:33:54;;;;;;;7.80;6.90;;;5.50;99.90;;;;;;5053444;28;20481;-74
2023/01/28 12:36:38;;;;;;;7.87;6.53;;;5.50;99.90;;;;;;5072531;28;20466;-70
2023/01/28 12:39:19;;;;;;;8.83;7.03;;;5.50;99.90;;;;;;5072972;28;20263;-70
2023/01/28 12:42:02;;;;;;;8.17;7.10;;;5.50;99.90;;;;;;5073209;28;20444;-70
2023/01/28 12:44:34;;;;;;;8.57;6.80;;;5.60;99.90;;;;;;5072829;28;20770;-72
2023/01/28 12:47:06;;;;;;;9.20;7.40;;;5.60;99.90;;;;;;5064882;28;20456;-72
2023/01/28 12:49:44;;;;;;;9.30;7.03;;;5.60;99.90;;;;;;5072754;28;20435;-72
2023/01/28 12:52:34;;;;;;;9.10;7.20;;;5.70;99.90;;;;;;5072601;28;20447;-71
2023/01/28 12:55:20;;;;;;;8.73;7.13;;;5.80;99.90;;;;;;5072295;28;20447;-71
2023/01/28 12:57:47;;;;;;;9.73;7.30;;;5.80;99.90;;;;;;5070903;28;20408;-69
2023/01/28 13:00:33;;;;;;;8.30;6.53;;;5.90;99.90;;;;;;5072756;28;20416;-71
2023/01/28 13:03:23;;;;;;;8.40;6.80;;;5.90;99.90;;;;;;5072813;28;20404;-72
2023/01/28 13:05:52;;;;;;;8.80;7.40;;;5.90;99.90;;;;;;5072467;28;20408;-72
2023/01/28 13:08:24;;;;;;;10.00;7.37;;;6.00;99.90;;;;;;5072522;28;20424;-71
2023/01/28 13:10:51;;;;;;;7.80;6.73;;;6.10;99.90;;;;;;5060609;28;20436;-71
2023/01/28 13:13:33;;;;;;;6.80;6.10;;;6.30;99.90;;;;;;5072650;28;20808;-72
2023/01/28 13:16:00;;;;;;;7.60;6.10;;;6.50;99.90;;;;;;5074974;28;20456;-73
2023/01/28 13:18:45;;;;;;;7.73;6.70;;;6.90;99.90;;;;;;5071861;28;20428;-72
2023/01/28 13:21:31;;;;;;;7.30;6.60;;;7.40;99.90;;;;;;5066581;28;20436;-71
2023/01/28 13:24:08;;;;;;;7.20;6.10;;;7.70;97.60;;;;;;5052347;28;20451;-71
2023/01/28 13:26:49;;;;;;;7.47;6.40;;;7.80;96.20;;;;;;5052154;28;20405;-71
2023/01/28 13:29:14;;;;;;;9.20;7.60;;;8.10;96.30;;;;;;5052168;28;20466;-71
2023/01/28 13:31:42;;;;;;;6.97;6.27;;;8.80;97.00;;;;;;5052608;28;20409;-71
2023/01/28 13:34:32;;;;;;;6.87;6.17;;;10.40;94.50;;;;;;5052119;28;20163;-71
2023/01/28 13:37:01;;;;;;;7.57;6.77;;;11.80;81.00;;;;;;5052170;28;20394;-71
2023/01/28 13:39:28;;;;;;;8.50;7.60;;;11.90;61.90;;;;;;5052132;28;20429;-72